sensor_id;sensor_type;location;lat;lon;timestamp;P1;durP1;ratioP1;P2;durP2;ratioP2
26486;SDS011;14425;56.136;40.360;2023-09-30T00:01:15;26.23;;;14.65;;
26486;SDS011;14425;56.136;40.360;2023-09-30T00:03:40;24.90;;;14.57;;
26486;SDS011;14425;56.136;40.360;2023-09-30T00:06:06;20.98;;;14.93;;
26486;SDS011;14425;56.136;40.360;2023-09-30T00:08:31;19.33;;;14.45;;
26486;SDS011;14425;56.136;40.360;2023-09-30T00:10:57;23.10;;;15.13;;
26486;SDS011;14425;56.136;40.360;2023-09-30T00:13:22;29.00;;;15.43;;
26486;SDS011;14425;56.136;40.360;2023-09-30T00:15:49;20.17;;;13.90;;
26486;SDS011;14425;56.136;40.360;2023-09-30T00:18:14;23.55;;;14.73;;
26486;SDS011;14425;56.136;40.360;2023-09-30T00:20:40;21.15;;;13.55;;
26486;SDS011;14425;56.136;40.360;2023-09-30T00:23:05;24.17;;;14.68;;
26486;SDS011;14425;56.136;40.360;2023-09-30T00:25:32;22.45;;;14.27;;
26486;SDS011;14425;56.136;40.360;2023-09-30T00:27:57;22.75;;;15.48;;
26486;SDS011;14425;56.136;40.360;2023-09-30T00:30:23;22.52;;;15.40;;
26486;SDS011;14425;56.136;40.360;2023-09-30T00:32:48;23.52;;;14.55;;
26486;SDS011;14425;56.136;40.360;2023-09-30T00:35:13;21.65;;;14.93;;
26486;SDS011;14425;56.136;40.360;2023-09-30T00:37:39;24.33;;;14.65;;
26486;SDS011;14425;56.136;40.360;2023-09-30T00:40:05;25.58;;;15.00;;
26486;SDS011;14425;56.136;40.360;2023-09-30T00:42:30;20.40;;;13.50;;
26486;SDS011;14425;56.136;40.360;2023-09-30T00:44:56;23.25;;;14.30;;
26486;SDS011;14425;56.136;40.360;2023-09-30T00:47:22;24.77;;;15.43;;
26486;SDS011;14425;56.136;40.360;2023-09-30T00:49:48;22.13;;;14.70;;
26486;SDS011;14425;56.136;40.360;2023-09-30T00:52:14;24.88;;;14.50;;
26486;SDS011;14425;56.136;40.360;2023-09-30T00:54:39;22.60;;;14.52;;
26486;SDS011;14425;56.136;40.360;2023-09-30T00:57:05;21.08;;;14.43;;
26486;SDS011;14425;56.136;40.360;2023-09-30T00:59:31;20.13;;;14.40;;
26486;SDS011;14425;56.136;40.360;2023-09-30T01:01:58;26.38;;;14.60;;
26486;SDS011;14425;56.136;40.360;2023-09-30T01:04:24;23.52;;;14.80;;
26486;SDS011;14425;56.136;40.360;2023-09-30T01:06:51;20.83;;;13.80;;
26486;SDS011;14425;56.136;40.360;2023-09-30T01:09:16;25.98;;;15.07;;
26486;SDS011;14425;56.136;40.360;2023-09-30T01:11:42;26.35;;;14.77;;
26486;SDS011;14425;56.136;40.360;2023-09-30T01:14:26;22.27;;;14.52;;
26486;SDS011;14425;56.136;40.360;2023-09-30T01:16:52;29.13;;;14.60;;
26486;SDS011;14425;56.136;40.360;2023-09-30T01:19:17;21.50;;;14.65;;
26486;SDS011;14425;56.136;40.360;2023-09-30T01:21:43;26.80;;;14.48;;
26486;SDS011;14425;56.136;40.360;2023-09-30T01:24:16;24.30;;;15.07;;
26486;SDS011;14425;56.136;40.360;2023-09-30T01:26:41;26.20;;;14.98;;
26486;SDS011;14425;56.136;40.360;2023-09-30T01:29:10;17.70;;;13.50;;
26486;SDS011;14425;56.136;40.360;2023-09-30T01:31:38;21.40;;;14.23;;
26486;SDS011;14425;56.136;40.360;2023-09-30T01:34:04;23.13;;;13.68;;
26486;SDS011;14425;56.136;40.360;2023-09-30T01:36:29;24.92;;;14.38;;
26486;SDS011;14425;56.136;40.360;2023-09-30T01:38:55;21.65;;;13.63;;
26486;SDS011;14425;56.136;40.360;2023-09-30T01:41:20;22.35;;;13.75;;
26486;SDS011;14425;56.136;40.360;2023-09-30T01:43:46;27.52;;;14.48;;
26486;SDS011;14425;56.136;40.360;2023-09-30T01:46:12;26.20;;;14.65;;
26486;SDS011;14425;56.136;40.360;2023-09-30T01:48:37;24.90;;;14.60;;
26486;SDS011;14425;56.136;40.360;2023-09-30T01:51:03;21.58;;;14.25;;
26486;SDS011;14425;56.136;40.360;2023-09-30T01:53:28;22.85;;;14.45;;
26486;SDS011;14425;56.136;40.360;2023-09-30T01:55:53;29.23;;;15.02;;
26486;SDS011;14425;56.136;40.360;2023-09-30T01:58:19;24.17;;;14.98;;
26486;SDS011;14425;56.136;40.360;2023-09-30T02:00:44;24.05;;;15.10;;
26486;SDS011;14425;56.136;40.360;2023-09-30T02:03:10;23.63;;;14.90;;
26486;SDS011;14425;56.136;40.360;2023-09-30T02:05:37;24.98;;;13.23;;
26486;SDS011;14425;56.136;40.360;2023-09-30T02:08:03;22.52;;;14.07;;
26486;SDS011;14425;56.136;40.360;2023-09-30T02:10:31;29.23;;;14.70;;
26486;SDS011;14425;56.136;40.360;2023-09-30T02:12:58;23.83;;;14.90;;
26486;SDS011;14425;56.136;40.360;2023-09-30T02:15:24;20.58;;;13.98;;
26486;SDS011;14425;56.136;40.360;2023-09-30T02:17:50;22.98;;;14.10;;
26486;SDS011;14425;56.136;40.360;2023-09-30T02:20:16;20.30;;;14.05;;
26486;SDS011;14425;56.136;40.360;2023-09-30T02:22:44;23.42;;;14.90;;
26486;SDS011;14425;56.136;40.360;2023-09-30T02:25:10;20.70;;;14.45;;
26486;SDS011;14425;56.136;40.360;2023-09-30T02:27:38;23.35;;;15.20;;
26486;SDS011;14425;56.136;40.360;2023-09-30T02:30:04;30.90;;;16.30;;
26486;SDS011;14425;56.136;40.360;2023-09-30T02:32:31;23.10;;;14.63;;
26486;SDS011;14425;56.136;40.360;2023-09-30T02:34:58;28.85;;;16.92;;
26486;SDS011;14425;56.136;40.360;2023-09-30T02:37:23;21.05;;;15.32;;
26486;SDS011;14425;56.136;40.360;2023-09-30T02:39:49;21.27;;;14.45;;
26486;SDS011;14425;56.136;40.360;2023-09-30T02:42:14;26.83;;;15.23;;
26486;SDS011;14425;56.136;40.360;2023-09-30T02:44:40;25.83;;;16.38;;
26486;SDS011;14425;56.136;40.360;2023-09-30T02:47:06;25.50;;;15.05;;
26486;SDS011;14425;56.136;40.360;2023-09-30T02:49:34;24.45;;;16.83;;
26486;SDS011;14425;56.136;40.360;2023-09-30T02:51:59;20.30;;;14.45;;
26486;SDS011;14425;56.136;40.360;2023-09-30T02:54:25;25.48;;;15.70;;
26486;SDS011;14425;56.136;40.360;2023-09-30T02:56:51;21.63;;;14.40;;
26486;SDS011;14425;56.136;40.360;2023-09-30T02:59:17;28.67;;;15.45;;
26486;SDS011;14425;56.136;40.360;2023-09-30T03:01:44;20.35;;;14.23;;
26486;SDS011;14425;56.136;40.360;2023-09-30T03:04:09;28.63;;;15.98;;
26486;SDS011;14425;56.136;40.360;2023-09-30T03:06:38;20.85;;;14.10;;
26486;SDS011;14425;56.136;40.360;2023-09-30T03:09:04;24.25;;;15.32;;
26486;SDS011;14425;56.136;40.360;2023-09-30T03:11:30;27.83;;;15.68;;
26486;SDS011;14425;56.136;40.360;2023-09-30T03:13:56;28.35;;;16.70;;
26486;SDS011;14425;56.136;40.360;2023-09-30T03:16:22;23.33;;;16.25;;
26486;SDS011;14425;56.136;40.360;2023-09-30T03:18:50;22.80;;;15.70;;
26486;SDS011;14425;56.136;40.360;2023-09-30T03:21:15;27.08;;;15.48;;
26486;SDS011;14425;56.136;40.360;2023-09-30T03:23:41;22.75;;;14.57;;
26486;SDS011;14425;56.136;40.360;2023-09-30T03:26:07;25.80;;;15.73;;
26486;SDS011;14425;56.136;40.360;2023-09-30T03:28:36;24.75;;;15.50;;
26486;SDS011;14425;56.136;40.360;2023-09-30T03:31:02;25.80;;;16.00;;
26486;SDS011;14425;56.136;40.360;2023-09-30T03:33:30;25.25;;;15.40;;
26486;SDS011;14425;56.136;40.360;2023-09-30T03:35:56;25.63;;;15.65;;
26486;SDS011;14425;56.136;40.360;2023-09-30T03:38:24;22.25;;;15.20;;
26486;SDS011;14425;56.136;40.360;2023-09-30T03:40:49;23.23;;;15.27;;
26486;SDS011;14425;56.136;40.360;2023-09-30T03:43:15;25.85;;;15.50;;
26486;SDS011;14425;56.136;40.360;2023-09-30T03:45:41;26.40;;;17.27;;
26486;SDS011;14425;56.136;40.360;2023-09-30T03:48:06;24.45;;;16.13;;
26486;SDS011;14425;56.136;40.360;2023-09-30T03:50:32;34.22;;;16.27;;
26486;SDS011;14425;56.136;40.360;2023-09-30T03:53:01;23.80;;;16.15;;
26486;SDS011;14425;56.136;40.360;2023-09-30T03:55:27;24.83;;;15.80;;
26486;SDS011;14425;56.136;40.360;2023-09-30T03:57:55;22.27;;;15.30;;
26486;SDS011;14425;56.136;40.360;2023-09-30T04:00:20;27.30;;;16.58;;
26486;SDS011;14425;56.136;40.360;2023-09-30T04:02:46;30.60;;;17.05;;
26486;SDS011;14425;56.136;40.360;2023-09-30T04:05:16;27.30;;;15.98;;
26486;SDS011;14425;56.136;40.360;2023-09-30T04:07:42;23.02;;;16.23;;
26486;SDS011;14425;56.136;40.360;2023-09-30T04:10:08;27.77;;;17.85;;
26486;SDS011;14425;56.136;40.360;2023-09-30T04:12:34;26.35;;;16.58;;
26486;SDS011;14425;56.136;40.360;2023-09-30T04:15:00;28.77;;;17.65;;
26486;SDS011;14425;56.136;40.360;2023-09-30T04:17:25;31.88;;;18.02;;
26486;SDS011;14425;56.136;40.360;2023-09-30T04:19:52;29.67;;;17.40;;
26486;SDS011;14425;56.136;40.360;2023-09-30T04:22:18;30.33;;;17.50;;
26486;SDS011;14425;56.136;40.360;2023-09-30T04:24:44;30.63;;;17.98;;
26486;SDS011;14425;56.136;40.360;2023-09-30T04:27:10;26.85;;;17.23;;
26486;SDS011;14425;56.136;40.360;2023-09-30T04:29:36;36.22;;;18.45;;
26486;SDS011;14425;56.136;40.360;2023-09-30T04:32:01;29.63;;;17.25;;
26486;SDS011;14425;56.136;40.360;2023-09-30T04:34:27;27.92;;;17.25;;
26486;SDS011;14425;56.136;40.360;2023-09-30T04:36:53;30.67;;;17.90;;
26486;SDS011;14425;56.136;40.360;2023-09-30T04:39:18;29.38;;;17.33;;
26486;SDS011;14425;56.136;40.360;2023-09-30T04:41:44;30.05;;;18.40;;
26486;SDS011;14425;56.136;40.360;2023-09-30T04:44:09;30.30;;;17.63;;
26486;SDS011;14425;56.136;40.360;2023-09-30T04:46:38;28.13;;;17.33;;
26486;SDS011;14425;56.136;40.360;2023-09-30T04:49:11;27.45;;;17.92;;
26486;SDS011;14425;56.136;40.360;2023-09-30T04:51:36;31.98;;;18.92;;
26486;SDS011;14425;56.136;40.360;2023-09-30T04:54:04;29.73;;;17.90;;
26486;SDS011;14425;56.136;40.360;2023-09-30T04:56:32;27.30;;;17.58;;
26486;SDS011;14425;56.136;40.360;2023-09-30T04:58:57;32.08;;;18.75;;
26486;SDS011;14425;56.136;40.360;2023-09-30T05:01:24;31.45;;;17.55;;
26486;SDS011;14425;56.136;40.360;2023-09-30T05:03:50;33.05;;;17.98;;
26486;SDS011;14425;56.136;40.360;2023-09-30T05:06:15;31.75;;;18.55;;
26486;SDS011;14425;56.136;40.360;2023-09-30T05:08:41;30.17;;;18.33;;
26486;SDS011;14425;56.136;40.360;2023-09-30T05:11:07;30.75;;;18.67;;
26486;SDS011;14425;56.136;40.360;2023-09-30T05:13:32;40.03;;;17.95;;
26486;SDS011;14425;56.136;40.360;2023-09-30T05:15:59;36.90;;;20.30;;
26486;SDS011;14425;56.136;40.360;2023-09-30T05:18:25;36.30;;;18.60;;
26486;SDS011;14425;56.136;40.360;2023-09-30T05:20:50;38.90;;;19.27;;
26486;SDS011;14425;56.136;40.360;2023-09-30T05:23:16;33.08;;;18.70;;
26486;SDS011;14425;56.136;40.360;2023-09-30T05:25:42;30.05;;;17.55;;
26486;SDS011;14425;56.136;40.360;2023-09-30T05:28:08;28.33;;;19.63;;
26486;SDS011;14425;56.136;40.360;2023-09-30T05:30:34;30.70;;;16.65;;
26486;SDS011;14425;56.136;40.360;2023-09-30T05:33:00;35.35;;;20.40;;
26486;SDS011;14425;56.136;40.360;2023-09-30T05:35:26;36.97;;;19.55;;
26486;SDS011;14425;56.136;40.360;2023-09-30T05:37:51;41.88;;;21.15;;
26486;SDS011;14425;56.136;40.360;2023-09-30T05:40:20;34.92;;;19.95;;
26486;SDS011;14425;56.136;40.360;2023-09-30T05:42:56;30.30;;;19.80;;
26486;SDS011;14425;56.136;40.360;2023-09-30T05:45:23;29.30;;;18.80;;
26486;SDS011;14425;56.136;40.360;2023-09-30T05:47:49;40.58;;;18.70;;
26486;SDS011;14425;56.136;40.360;2023-09-30T05:50:14;33.08;;;19.38;;
26486;SDS011;14425;56.136;40.360;2023-09-30T05:52:44;36.17;;;19.23;;
26486;SDS011;14425;56.136;40.360;2023-09-30T05:55:10;36.65;;;19.15;;
26486;SDS011;14425;56.136;40.360;2023-09-30T05:57:36;40.40;;;18.63;;
26486;SDS011;14425;56.136;40.360;2023-09-30T06:00:02;26.80;;;14.30;;
26486;SDS011;14425;56.136;40.360;2023-09-30T06:02:45;31.25;;;17.30;;
26486;SDS011;14425;56.136;40.360;2023-09-30T06:05:11;33.45;;;18.42;;
26486;SDS011;14425;56.136;40.360;2023-09-30T06:07:37;38.10;;;18.13;;
26486;SDS011;14425;56.136;40.360;2023-09-30T06:10:02;36.08;;;18.40;;
26486;SDS011;14425;56.136;40.360;2023-09-30T06:12:29;35.97;;;18.20;;
26486;SDS011;14425;56.136;40.360;2023-09-30T06:14:54;34.03;;;19.58;;
26486;SDS011;14425;56.136;40.360;2023-09-30T06:17:20;36.40;;;19.42;;
26486;SDS011;14425;56.136;40.360;2023-09-30T06:19:47;34.78;;;18.40;;
26486;SDS011;14425;56.136;40.360;2023-09-30T06:22:14;30.98;;;18.25;;
26486;SDS011;14425;56.136;40.360;2023-09-30T06:24:40;25.77;;;17.52;;
26486;SDS011;14425;56.136;40.360;2023-09-30T06:27:05;25.65;;;16.77;;
26486;SDS011;14425;56.136;40.360;2023-09-30T06:29:30;29.88;;;16.25;;
26486;SDS011;14425;56.136;40.360;2023-09-30T06:31:56;27.77;;;16.60;;
26486;SDS011;14425;56.136;40.360;2023-09-30T06:34:21;22.92;;;15.05;;
26486;SDS011;14425;56.136;40.360;2023-09-30T06:36:47;26.52;;;15.10;;
26486;SDS011;14425;56.136;40.360;2023-09-30T06:39:12;26.35;;;15.77;;
26486;SDS011;14425;56.136;40.360;2023-09-30T06:41:37;24.73;;;13.45;;
26486;SDS011;14425;56.136;40.360;2023-09-30T06:44:04;24.58;;;14.02;;
26486;SDS011;14425;56.136;40.360;2023-09-30T06:46:30;16.60;;;12.13;;
26486;SDS011;14425;56.136;40.360;2023-09-30T06:48:55;18.25;;;13.95;;
26486;SDS011;14425;56.136;40.360;2023-09-30T06:51:20;20.15;;;14.20;;
26486;SDS011;14425;56.136;40.360;2023-09-30T06:53:46;23.40;;;15.40;;
26486;SDS011;14425;56.136;40.360;2023-09-30T06:56:11;20.83;;;14.57;;
26486;SDS011;14425;56.136;40.360;2023-09-30T06:58:38;22.23;;;14.48;;
26486;SDS011;14425;56.136;40.360;2023-09-30T07:01:03;28.85;;;15.93;;
26486;SDS011;14425;56.136;40.360;2023-09-30T07:03:29;29.33;;;15.95;;
26486;SDS011;14425;56.136;40.360;2023-09-30T07:05:55;20.77;;;12.82;;
26486;SDS011;14425;56.136;40.360;2023-09-30T07:08:22;23.25;;;13.35;;
26486;SDS011;14425;56.136;40.360;2023-09-30T07:10:47;24.52;;;13.75;;
26486;SDS011;14425;56.136;40.360;2023-09-30T07:13:15;19.65;;;13.05;;
26486;SDS011;14425;56.136;40.360;2023-09-30T07:15:41;20.85;;;12.85;;
26486;SDS011;14425;56.136;40.360;2023-09-30T07:18:06;25.70;;;12.20;;
26486;SDS011;14425;56.136;40.360;2023-09-30T07:20:32;23.35;;;12.63;;
26486;SDS011;14425;56.136;40.360;2023-09-30T07:23:01;22.73;;;13.90;;
26486;SDS011;14425;56.136;40.360;2023-09-30T07:25:27;21.05;;;13.30;;
26486;SDS011;14425;56.136;40.360;2023-09-30T07:27:52;19.67;;;12.48;;
26486;SDS011;14425;56.136;40.360;2023-09-30T07:30:18;22.13;;;12.68;;
26486;SDS011;14425;56.136;40.360;2023-09-30T07:32:44;21.95;;;12.15;;
26486;SDS011;14425;56.136;40.360;2023-09-30T07:35:12;21.08;;;11.20;;
26486;SDS011;14425;56.136;40.360;2023-09-30T07:37:39;20.77;;;12.80;;
26486;SDS011;14425;56.136;40.360;2023-09-30T07:40:04;22.35;;;13.10;;
26486;SDS011;14425;56.136;40.360;2023-09-30T07:42:31;24.20;;;11.68;;
26486;SDS011;14425;56.136;40.360;2023-09-30T07:44:58;18.23;;;12.13;;
26486;SDS011;14425;56.136;40.360;2023-09-30T07:47:24;18.75;;;10.80;;
26486;SDS011;14425;56.136;40.360;2023-09-30T07:49:49;23.73;;;12.00;;
26486;SDS011;14425;56.136;40.360;2023-09-30T07:52:15;22.35;;;10.57;;
26486;SDS011;14425;56.136;40.360;2023-09-30T07:54:40;22.25;;;10.98;;
26486;SDS011;14425;56.136;40.360;2023-09-30T07:57:06;18.23;;;11.90;;
26486;SDS011;14425;56.136;40.360;2023-09-30T07:59:31;23.17;;;11.48;;
26486;SDS011;14425;56.136;40.360;2023-09-30T08:01:58;23.40;;;11.93;;
26486;SDS011;14425;56.136;40.360;2023-09-30T08:04:24;14.48;;;10.70;;
26486;SDS011;14425;56.136;40.360;2023-09-30T08:06:50;23.95;;;10.52;;
26486;SDS011;14425;56.136;40.360;2023-09-30T08:09:16;20.90;;;11.65;;
26486;SDS011;14425;56.136;40.360;2023-09-30T08:11:44;16.55;;;10.52;;
26486;SDS011;14425;56.136;40.360;2023-09-30T08:14:09;18.90;;;10.68;;
26486;SDS011;14425;56.136;40.360;2023-09-30T08:16:38;16.33;;;10.55;;
26486;SDS011;14425;56.136;40.360;2023-09-30T08:19:04;21.40;;;9.88;;
26486;SDS011;14425;56.136;40.360;2023-09-30T08:21:30;14.25;;;8.95;;
26486;SDS011;14425;56.136;40.360;2023-09-30T08:23:56;15.85;;;9.65;;
26486;SDS011;14425;56.136;40.360;2023-09-30T08:26:22;16.17;;;10.13;;
26486;SDS011;14425;56.136;40.360;2023-09-30T08:28:47;15.35;;;10.00;;
26486;SDS011;14425;56.136;40.360;2023-09-30T08:31:12;15.80;;;9.88;;
26486;SDS011;14425;56.136;40.360;2023-09-30T08:33:38;18.45;;;10.88;;
26486;SDS011;14425;56.136;40.360;2023-09-30T08:36:06;16.27;;;9.82;;
26486;SDS011;14425;56.136;40.360;2023-09-30T08:38:37;18.02;;;10.50;;
26486;SDS011;14425;56.136;40.360;2023-09-30T08:41:03;24.65;;;12.73;;
26486;SDS011;14425;56.136;40.360;2023-09-30T08:43:28;26.50;;;14.85;;
26486;SDS011;14425;56.136;40.360;2023-09-30T08:45:57;23.38;;;11.50;;
26486;SDS011;14425;56.136;40.360;2023-09-30T08:48:26;20.13;;;12.40;;
26486;SDS011;14425;56.136;40.360;2023-09-30T08:50:52;21.88;;;11.80;;
26486;SDS011;14425;56.136;40.360;2023-09-30T08:53:18;22.50;;;11.68;;
26486;SDS011;14425;56.136;40.360;2023-09-30T08:55:44;22.13;;;12.57;;
26486;SDS011;14425;56.136;40.360;2023-09-30T08:58:11;21.45;;;11.23;;
26486;SDS011;14425;56.136;40.360;2023-09-30T09:00:38;22.15;;;13.10;;
26486;SDS011;14425;56.136;40.360;2023-09-30T09:03:04;20.17;;;12.68;;
26486;SDS011;14425;56.136;40.360;2023-09-30T09:05:29;18.45;;;11.98;;
26486;SDS011;14425;56.136;40.360;2023-09-30T09:07:55;25.83;;;15.18;;
26486;SDS011;14425;56.136;40.360;2023-09-30T09:10:20;23.55;;;12.95;;
26486;SDS011;14425;56.136;40.360;2023-09-30T09:12:54;38.80;;;19.80;;
26486;SDS011;14425;56.136;40.360;2023-09-30T09:15:20;32.88;;;17.20;;
26486;SDS011;14425;56.136;40.360;2023-09-30T09:17:46;29.60;;;18.48;;
26486;SDS011;14425;56.136;40.360;2023-09-30T09:20:16;19.98;;;12.73;;
26486;SDS011;14425;56.136;40.360;2023-09-30T09:22:45;24.08;;;13.18;;
26486;SDS011;14425;56.136;40.360;2023-09-30T09:25:10;17.70;;;11.32;;
26486;SDS011;14425;56.136;40.360;2023-09-30T09:27:36;23.85;;;13.00;;
26486;SDS011;14425;56.136;40.360;2023-09-30T09:30:14;21.60;;;12.07;;
26486;SDS011;14425;56.136;40.360;2023-09-30T09:32:50;17.85;;;10.65;;
26486;SDS011;14425;56.136;40.360;2023-09-30T09:35:19;19.35;;;10.90;;
26486;SDS011;14425;56.136;40.360;2023-09-30T09:37:45;21.17;;;12.32;;
26486;SDS011;14425;56.136;40.360;2023-09-30T09:40:21;19.80;;;12.50;;
26486;SDS011;14425;56.136;40.360;2023-09-30T09:42:47;14.25;;;11.05;;
26486;SDS011;14425;56.136;40.360;2023-09-30T09:45:15;24.13;;;13.57;;
26486;SDS011;14425;56.136;40.360;2023-09-30T09:47:41;15.75;;;10.30;;
26486;SDS011;14425;56.136;40.360;2023-09-30T09:50:07;28.50;;;18.25;;
26486;SDS011;14425;56.136;40.360;2023-09-30T09:52:34;22.55;;;12.15;;
26486;SDS011;14425;56.136;40.360;2023-09-30T09:54:59;15.45;;;9.88;;
26486;SDS011;14425;56.136;40.360;2023-09-30T09:57:26;16.17;;;10.43;;
26486;SDS011;14425;56.136;40.360;2023-09-30T09:59:52;18.17;;;11.95;;
26486;SDS011;14425;56.136;40.360;2023-09-30T10:02:19;16.63;;;11.13;;
26486;SDS011;14425;56.136;40.360;2023-09-30T10:04:45;16.00;;;9.60;;
26486;SDS011;14425;56.136;40.360;2023-09-30T10:07:15;22.08;;;14.50;;
26486;SDS011;14425;56.136;40.360;2023-09-30T10:09:43;28.65;;;16.30;;
26486;SDS011;14425;56.136;40.360;2023-09-30T10:12:10;19.13;;;11.68;;
26486;SDS011;14425;56.136;40.360;2023-09-30T10:14:36;16.00;;;10.93;;
26486;SDS011;14425;56.136;40.360;2023-09-30T10:17:02;16.23;;;9.48;;
26486;SDS011;14425;56.136;40.360;2023-09-30T10:19:29;15.07;;;9.52;;
26486;SDS011;14425;56.136;40.360;2023-09-30T10:24:40;18.75;;;10.32;;
26486;SDS011;14425;56.136;40.360;2023-09-30T10:35:09;24.75;;;12.75;;
26486;SDS011;14425;56.136;40.360;2023-09-30T10:37:34;22.75;;;11.43;;
26486;SDS011;14425;56.136;40.360;2023-09-30T10:40:00;16.02;;;8.82;;
26486;SDS011;14425;56.136;40.360;2023-09-30T10:42:47;18.00;;;9.30;;
26486;SDS011;14425;56.136;40.360;2023-09-30T10:48:26;15.95;;;9.60;;
26486;SDS011;14425;56.136;40.360;2023-09-30T10:50:51;18.20;;;10.40;;
26486;SDS011;14425;56.136;40.360;2023-09-30T10:53:17;13.80;;;8.85;;
26486;SDS011;14425;56.136;40.360;2023-09-30T10:55:45;16.63;;;9.38;;
26486;SDS011;14425;56.136;40.360;2023-09-30T10:58:14;16.25;;;9.32;;
26486;SDS011;14425;56.136;40.360;2023-09-30T11:00:47;17.50;;;9.65;;
26486;SDS011;14425;56.136;40.360;2023-09-30T11:03:20;13.37;;;7.60;;
26486;SDS011;14425;56.136;40.360;2023-09-30T11:05:48;15.75;;;8.77;;
26486;SDS011;14425;56.136;40.360;2023-09-30T11:08:17;9.30;;;6.32;;
26486;SDS011;14425;56.136;40.360;2023-09-30T11:10:47;16.43;;;7.97;;
26486;SDS011;14425;56.136;40.360;2023-09-30T11:13:13;11.93;;;7.40;;
26486;SDS011;14425;56.136;40.360;2023-09-30T11:15:38;15.75;;;8.18;;
26486;SDS011;14425;56.136;40.360;2023-09-30T11:18:17;14.13;;;7.88;;
26486;SDS011;14425;56.136;40.360;2023-09-30T11:20:43;17.25;;;9.35;;
26486;SDS011;14425;56.136;40.360;2023-09-30T11:23:09;16.33;;;9.93;;
26486;SDS011;14425;56.136;40.360;2023-09-30T11:25:35;20.38;;;11.13;;
26486;SDS011;14425;56.136;40.360;2023-09-30T11:33:23;18.85;;;10.13;;
26486;SDS011;14425;56.136;40.360;2023-09-30T11:36:09;14.45;;;9.32;;
26486;SDS011;14425;56.136;40.360;2023-09-30T11:38:34;17.83;;;9.23;;
26486;SDS011;14425;56.136;40.360;2023-09-30T11:41:06;20.92;;;10.35;;
26486;SDS011;14425;56.136;40.360;2023-09-30T11:43:33;10.50;;;8.07;;
26486;SDS011;14425;56.136;40.360;2023-09-30T11:46:08;15.25;;;9.85;;
26486;SDS011;14425;56.136;40.360;2023-09-30T11:48:56;15.68;;;9.13;;
26486;SDS011;14425;56.136;40.360;2023-09-30T11:51:19;15.07;;;7.97;;
26486;SDS011;14425;56.136;40.360;2023-09-30T11:53:48;11.63;;;7.50;;
26486;SDS011;14425;56.136;40.360;2023-09-30T11:56:17;9.75;;;7.20;;
26486;SDS011;14425;56.136;40.360;2023-09-30T11:58:42;16.77;;;8.60;;
26486;SDS011;14425;56.136;40.360;2023-09-30T12:01:08;13.07;;;7.83;;
26486;SDS011;14425;56.136;40.360;2023-09-30T12:03:37;13.35;;;8.20;;
26486;SDS011;14425;56.136;40.360;2023-09-30T12:06:08;12.35;;;8.02;;
26486;SDS011;14425;56.136;40.360;2023-09-30T12:08:34;17.25;;;8.15;;
26486;SDS011;14425;56.136;40.360;2023-09-30T12:10:59;13.77;;;8.15;;
26486;SDS011;14425;56.136;40.360;2023-09-30T12:13:25;10.75;;;7.85;;
26486;SDS011;14425;56.136;40.360;2023-09-30T12:15:51;14.38;;;8.35;;
26486;SDS011;14425;56.136;40.360;2023-09-30T12:18:18;10.77;;;7.60;;
26486;SDS011;14425;56.136;40.360;2023-09-30T12:20:49;17.70;;;7.38;;
26486;SDS011;14425;56.136;40.360;2023-09-30T12:23:14;14.23;;;9.57;;
26486;SDS011;14425;56.136;40.360;2023-09-30T12:25:39;17.40;;;9.82;;
26486;SDS011;14425;56.136;40.360;2023-09-30T12:28:05;13.05;;;8.93;;
26486;SDS011;14425;56.136;40.360;2023-09-30T12:30:30;13.23;;;8.02;;
26486;SDS011;14425;56.136;40.360;2023-09-30T12:32:57;15.27;;;8.18;;
26486;SDS011;14425;56.136;40.360;2023-09-30T12:35:22;15.60;;;8.70;;
26486;SDS011;14425;56.136;40.360;2023-09-30T12:37:48;11.30;;;8.38;;
26486;SDS011;14425;56.136;40.360;2023-09-30T12:40:13;18.50;;;7.22;;
26486;SDS011;14425;56.136;40.360;2023-09-30T12:42:42;11.88;;;9.05;;
26486;SDS011;14425;56.136;40.360;2023-09-30T12:45:08;14.25;;;9.88;;
26486;SDS011;14425;56.136;40.360;2023-09-30T12:47:33;18.58;;;10.25;;
26486;SDS011;14425;56.136;40.360;2023-09-30T12:49:59;15.38;;;9.27;;
26486;SDS011;14425;56.136;40.360;2023-09-30T12:52:24;12.27;;;8.95;;
26486;SDS011;14425;56.136;40.360;2023-09-30T12:54:50;19.50;;;8.57;;
26486;SDS011;14425;56.136;40.360;2023-09-30T12:57:16;16.13;;;10.77;;
26486;SDS011;14425;56.136;40.360;2023-09-30T12:59:43;10.88;;;7.45;;
26486;SDS011;14425;56.136;40.360;2023-09-30T13:02:11;16.90;;;7.78;;
26486;SDS011;14425;56.136;40.360;2023-09-30T13:04:37;10.70;;;6.25;;
26486;SDS011;14425;56.136;40.360;2023-09-30T13:07:08;12.65;;;6.88;;
26486;SDS011;14425;56.136;40.360;2023-09-30T13:09:33;12.63;;;7.07;;
26486;SDS011;14425;56.136;40.360;2023-09-30T13:11:58;14.68;;;8.23;;
26486;SDS011;14425;56.136;40.360;2023-09-30T13:14:25;15.45;;;9.00;;
26486;SDS011;14425;56.136;40.360;2023-09-30T13:16:53;18.30;;;10.38;;
26486;SDS011;14425;56.136;40.360;2023-09-30T13:19:19;15.45;;;9.15;;
26486;SDS011;14425;56.136;40.360;2023-09-30T13:21:47;12.90;;;8.38;;
26486;SDS011;14425;56.136;40.360;2023-09-30T13:24:12;17.23;;;8.98;;
26486;SDS011;14425;56.136;40.360;2023-09-30T13:26:37;11.18;;;7.00;;
26486;SDS011;14425;56.136;40.360;2023-09-30T13:29:03;13.02;;;8.55;;
26486;SDS011;14425;56.136;40.360;2023-09-30T13:31:30;13.32;;;8.15;;
26486;SDS011;14425;56.136;40.360;2023-09-30T13:33:55;14.45;;;8.52;;
26486;SDS011;14425;56.136;40.360;2023-09-30T13:36:21;10.85;;;8.20;;
26486;SDS011;14425;56.136;40.360;2023-09-30T13:38:46;12.32;;;7.60;;
26486;SDS011;14425;56.136;40.360;2023-09-30T13:41:12;11.80;;;7.78;;
26486;SDS011;14425;56.136;40.360;2023-09-30T13:43:37;14.27;;;9.38;;
26486;SDS011;14425;56.136;40.360;2023-09-30T13:46:04;20.65;;;9.82;;
26486;SDS011;14425;56.136;40.360;2023-09-30T13:48:32;13.18;;;8.30;;
26486;SDS011;14425;56.136;40.360;2023-09-30T13:51:07;21.35;;;10.25;;
26486;SDS011;14425;56.136;40.360;2023-09-30T13:53:33;25.02;;;12.55;;
26486;SDS011;14425;56.136;40.360;2023-09-30T13:55:58;26.65;;;13.88;;
26486;SDS011;14425;56.136;40.360;2023-09-30T13:58:31;18.90;;;12.57;;
26486;SDS011;14425;56.136;40.360;2023-09-30T14:00:57;21.20;;;11.00;;
26486;SDS011;14425;56.136;40.360;2023-09-30T14:03:22;14.38;;;10.02;;
26486;SDS011;14425;56.136;40.360;2023-09-30T14:05:49;21.00;;;9.30;;
26486;SDS011;14425;56.136;40.360;2023-09-30T14:08:15;16.33;;;9.63;;
26486;SDS011;14425;56.136;40.360;2023-09-30T14:10:41;13.43;;;9.73;;
26486;SDS011;14425;56.136;40.360;2023-09-30T14:13:07;20.58;;;10.23;;
26486;SDS011;14425;56.136;40.360;2023-09-30T14:15:32;12.95;;;9.40;;
26486;SDS011;14425;56.136;40.360;2023-09-30T14:17:58;15.00;;;9.57;;
26486;SDS011;14425;56.136;40.360;2023-09-30T14:20:23;18.92;;;9.63;;
26486;SDS011;14425;56.136;40.360;2023-09-30T14:22:49;12.48;;;9.00;;
26486;SDS011;14425;56.136;40.360;2023-09-30T14:25:17;16.92;;;9.27;;
26486;SDS011;14425;56.136;40.360;2023-09-30T14:27:42;21.02;;;10.18;;